sensor_id;sensor_type;location;lat;lon;timestamp;P1;durP1;ratioP1;P2;durP2;ratioP2
26014;SDS011;13793;55.388;37.844;2022-11-15T00:01:01;5.17;;;1.60;;
26014;SDS011;13793;55.388;37.844;2022-11-15T00:03:53;5.87;;;1.60;;
26014;SDS011;13793;55.388;37.844;2022-11-15T00:06:41;5.77;;;1.40;;
26014;SDS011;13793;55.388;37.844;2022-11-15T00:09:30;2.17;;;1.30;;
26014;SDS011;13793;55.388;37.844;2022-11-15T00:12:19;2.33;;;1.50;;
26014;SDS011;13793;55.388;37.844;2022-11-15T00:15:07;3.67;;;1.40;;
26014;SDS011;13793;55.388;37.844;2022-11-15T00:17:56;3.87;;;1.60;;
26014;SDS011;13793;55.388;37.844;2022-11-15T00:20:45;4.43;;;1.60;;
26014;SDS011;13793;55.388;37.844;2022-11-15T00:23:34;3.33;;;1.70;;
26014;SDS011;13793;55.388;37.844;2022-11-15T00:26:23;4.30;;;1.87;;
26014;SDS011;13793;55.388;37.844;2022-11-15T00:29:12;5.17;;;2.00;;
26014;SDS011;13793;55.388;37.844;2022-11-15T00:32:00;4.57;;;2.23;;
26014;SDS011;13793;55.388;37.844;2022-11-15T00:34:49;6.73;;;2.40;;
26014;SDS011;13793;55.388;37.844;2022-11-15T00:37:37;7.13;;;3.87;;
26014;SDS011;13793;55.388;37.844;2022-11-15T00:40:25;6.97;;;2.80;;
26014;SDS011;13793;55.388;37.844;2022-11-15T00:43:14;4.40;;;2.80;;
26014;SDS011;13793;55.388;37.844;2022-11-15T00:46:02;9.33;;;4.37;;
26014;SDS011;13793;55.388;37.844;2022-11-15T00:48:51;8.33;;;4.10;;
26014;SDS011;13793;55.388;37.844;2022-11-15T00:51:39;5.50;;;2.70;;
26014;SDS011;13793;55.388;37.844;2022-11-15T00:54:28;4.17;;;2.10;;
26014;SDS011;13793;55.388;37.844;2022-11-15T00:57:16;8.67;;;2.20;;
26014;SDS011;13793;55.388;37.844;2022-11-15T01:02:53;8.30;;;2.50;;
26014;SDS011;13793;55.388;37.844;2022-11-15T01:05:41;6.67;;;2.10;;
26014;SDS011;13793;55.388;37.844;2022-11-15T01:08:30;5.83;;;2.60;;
26014;SDS011;13793;55.388;37.844;2022-11-15T01:11:19;4.23;;;2.20;;
26014;SDS011;13793;55.388;37.844;2022-11-15T01:14:07;5.30;;;2.83;;
26014;SDS011;13793;55.388;37.844;2022-11-15T01:16:55;5.10;;;2.90;;
26014;SDS011;13793;55.388;37.844;2022-11-15T01:19:44;7.77;;;2.87;;
26014;SDS011;13793;55.388;37.844;2022-11-15T01:22:33;6.33;;;2.57;;
26014;SDS011;13793;55.388;37.844;2022-11-15T01:25:21;4.70;;;2.20;;
26014;SDS011;13793;55.388;37.844;2022-11-15T01:28:10;6.13;;;2.10;;
26014;SDS011;13793;55.388;37.844;2022-11-15T01:30:58;3.17;;;1.90;;
26014;SDS011;13793;55.388;37.844;2022-11-15T01:33:47;3.83;;;1.70;;
26014;SDS011;13793;55.388;37.844;2022-11-15T01:36:36;3.43;;;1.60;;
26014;SDS011;13793;55.388;37.844;2022-11-15T01:39:24;6.83;;;1.90;;
26014;SDS011;13793;55.388;37.844;2022-11-15T01:42:13;4.03;;;1.90;;
26014;SDS011;13793;55.388;37.844;2022-11-15T01:45:02;4.40;;;2.07;;
26014;SDS011;13793;55.388;37.844;2022-11-15T01:47:52;3.37;;;2.37;;
26014;SDS011;13793;55.388;37.844;2022-11-15T01:50:41;5.30;;;2.77;;
26014;SDS011;13793;55.388;37.844;2022-11-15T01:53:30;9.67;;;3.13;;
26014;SDS011;13793;55.388;37.844;2022-11-15T01:56:20;5.40;;;2.77;;
26014;SDS011;13793;55.388;37.844;2022-11-15T01:59:11;7.77;;;3.07;;
26014;SDS011;13793;55.388;37.844;2022-11-15T02:02:00;4.63;;;2.00;;
26014;SDS011;13793;55.388;37.844;2022-11-15T02:04:49;7.30;;;2.93;;
26014;SDS011;13793;55.388;37.844;2022-11-15T02:07:37;7.00;;;2.40;;
26014;SDS011;13793;55.388;37.844;2022-11-15T02:10:27;3.77;;;1.90;;
26014;SDS011;13793;55.388;37.844;2022-11-15T02:13:16;3.67;;;1.90;;
26014;SDS011;13793;55.388;37.844;2022-11-15T02:19:28;3.50;;;1.90;;
26014;SDS011;13793;55.388;37.844;2022-11-15T02:25:25;4.03;;;2.00;;
26014;SDS011;13793;55.388;37.844;2022-11-15T02:31:27;8.17;;;2.60;;
26014;SDS011;13793;55.388;37.844;2022-11-15T02:34:59;5.23;;;2.00;;
26014;SDS011;13793;55.388;37.844;2022-11-15T02:37:36;4.93;;;1.97;;
26014;SDS011;13793;55.388;37.844;2022-11-15T02:40:34;5.00;;;2.27;;
26014;SDS011;13793;55.388;37.844;2022-11-15T02:43:46;4.20;;;2.10;;
26014;SDS011;13793;55.388;37.844;2022-11-15T02:52:32;5.43;;;2.13;;
26014;SDS011;13793;55.388;37.844;2022-11-15T02:55:34;9.67;;;2.23;;
26014;SDS011;13793;55.388;37.844;2022-11-15T03:01:46;6.10;;;2.43;;
26014;SDS011;13793;55.388;37.844;2022-11-15T03:04:37;7.87;;;2.70;;
26014;SDS011;13793;55.388;37.844;2022-11-15T03:13:39;4.63;;;1.60;;
26014;SDS011;13793;55.388;37.844;2022-11-15T03:16:37;5.07;;;1.83;;
26014;SDS011;13793;55.388;37.844;2022-11-15T03:22:36;8.27;;;2.50;;
26014;SDS011;13793;55.388;37.844;2022-11-15T03:25:25;4.80;;;2.30;;
26014;SDS011;13793;55.388;37.844;2022-11-15T03:28:22;8.60;;;3.13;;
26014;SDS011;13793;55.388;37.844;2022-11-15T03:31:12;9.13;;;2.90;;
26014;SDS011;13793;55.388;37.844;2022-11-15T03:34:21;7.40;;;2.00;;
26014;SDS011;13793;55.388;37.844;2022-11-15T03:37:14;8.33;;;2.53;;
26014;SDS011;13793;55.388;37.844;2022-11-15T03:40:04;5.07;;;2.10;;
26014;SDS011;13793;55.388;37.844;2022-11-15T03:45:50;4.60;;;2.33;;
26014;SDS011;13793;55.388;37.844;2022-11-15T03:48:41;6.13;;;2.20;;
26014;SDS011;13793;55.388;37.844;2022-11-15T03:51:31;11.93;;;4.73;;
26014;SDS011;13793;55.388;37.844;2022-11-15T03:54:20;15.03;;;5.37;;
26014;SDS011;13793;55.388;37.844;2022-11-15T03:57:08;15.90;;;5.85;;
26014;SDS011;13793;55.388;37.844;2022-11-15T03:59:56;15.13;;;3.57;;
26014;SDS011;13793;55.388;37.844;2022-11-15T04:02:44;11.93;;;4.93;;
26014;SDS011;13793;55.388;37.844;2022-11-15T04:05:33;8.67;;;3.10;;
26014;SDS011;13793;55.388;37.844;2022-11-15T04:08:22;19.87;;;6.70;;
26014;SDS011;13793;55.388;37.844;2022-11-15T04:11:10;16.00;;;5.47;;
26014;SDS011;13793;55.388;37.844;2022-11-15T04:14:02;17.13;;;5.43;;
26014;SDS011;13793;55.388;37.844;2022-11-15T04:16:51;20.20;;;6.87;;
26014;SDS011;13793;55.388;37.844;2022-11-15T04:19:39;16.27;;;5.73;;
26014;SDS011;13793;55.388;37.844;2022-11-15T04:22:45;6.97;;;2.57;;
26014;SDS011;13793;55.388;37.844;2022-11-15T04:25:52;12.50;;;3.97;;
26014;SDS011;13793;55.388;37.844;2022-11-15T04:28:42;12.27;;;3.87;;
26014;SDS011;13793;55.388;37.844;2022-11-15T04:31:48;12.87;;;3.87;;
26014;SDS011;13793;55.388;37.844;2022-11-15T04:34:37;5.40;;;2.30;;
26014;SDS011;13793;55.388;37.844;2022-11-15T04:37:25;5.53;;;2.53;;
26014;SDS011;13793;55.388;37.844;2022-11-15T04:40:14;11.53;;;5.03;;
26014;SDS011;13793;55.388;37.844;2022-11-15T04:43:03;13.30;;;5.73;;
26014;SDS011;13793;55.388;37.844;2022-11-15T04:45:52;12.63;;;5.40;;
26014;SDS011;13793;55.388;37.844;2022-11-15T04:48:40;7.20;;;2.93;;
26014;SDS011;13793;55.388;37.844;2022-11-15T04:51:30;5.50;;;2.50;;
26014;SDS011;13793;55.388;37.844;2022-11-15T04:54:18;7.30;;;1.93;;
26014;SDS011;13793;55.388;37.844;2022-11-15T04:57:07;5.47;;;1.53;;
26014;SDS011;13793;55.388;37.844;2022-11-15T04:59:55;6.87;;;1.90;;
26014;SDS011;13793;55.388;37.844;2022-11-15T05:02:44;5.37;;;2.60;;
26014;SDS011;13793;55.388;37.844;2022-11-15T05:05:51;4.70;;;1.73;;
26014;SDS011;13793;55.388;37.844;2022-11-15T05:08:40;3.60;;;1.77;;
26014;SDS011;13793;55.388;37.844;2022-11-15T05:11:29;7.93;;;1.70;;
26014;SDS011;13793;55.388;37.844;2022-11-15T05:14:18;2.63;;;1.30;;
26014;SDS011;13793;55.388;37.844;2022-11-15T05:17:06;7.97;;;1.50;;
26014;SDS011;13793;55.388;37.844;2022-11-15T05:19:55;4.47;;;1.77;;
26014;SDS011;13793;55.388;37.844;2022-11-15T05:22:44;5.40;;;1.60;;
26014;SDS011;13793;55.388;37.844;2022-11-15T05:25:33;5.17;;;1.60;;
26014;SDS011;13793;55.388;37.844;2022-11-15T05:28:23;6.83;;;2.10;;
26014;SDS011;13793;55.388;37.844;2022-11-15T05:31:13;5.90;;;2.33;;
26014;SDS011;13793;55.388;37.844;2022-11-15T05:34:03;6.67;;;2.20;;
26014;SDS011;13793;55.388;37.844;2022-11-15T05:36:52;9.03;;;2.90;;
26014;SDS011;13793;55.388;37.844;2022-11-15T05:39:42;9.47;;;3.03;;
26014;SDS011;13793;55.388;37.844;2022-11-15T05:42:30;5.93;;;2.47;;
26014;SDS011;13793;55.388;37.844;2022-11-15T05:45:18;5.80;;;1.60;;
26014;SDS011;13793;55.388;37.844;2022-11-15T05:48:07;7.27;;;2.00;;
26014;SDS011;13793;55.388;37.844;2022-11-15T05:50:56;9.57;;;3.60;;
26014;SDS011;13793;55.388;37.844;2022-11-15T05:53:45;8.63;;;2.90;;
26014;SDS011;13793;55.388;37.844;2022-11-15T05:56:34;11.63;;;3.60;;
26014;SDS011;13793;55.388;37.844;2022-11-15T05:59:23;9.07;;;4.57;;
26014;SDS011;13793;55.388;37.844;2022-11-15T06:02:11;8.83;;;3.30;;
26014;SDS011;13793;55.388;37.844;2022-11-15T06:05:00;6.60;;;2.73;;
26014;SDS011;13793;55.388;37.844;2022-11-15T06:07:50;9.27;;;2.80;;
26014;SDS011;13793;55.388;37.844;2022-11-15T06:10:38;7.17;;;1.80;;
26014;SDS011;13793;55.388;37.844;2022-11-15T06:13:27;6.63;;;1.73;;
26014;SDS011;13793;55.388;37.844;2022-11-15T06:16:15;7.77;;;2.10;;
26014;SDS011;13793;55.388;37.844;2022-11-15T06:19:05;6.00;;;1.83;;
26014;SDS011;13793;55.388;37.844;2022-11-15T06:21:56;6.07;;;2.10;;
26014;SDS011;13793;55.388;37.844;2022-11-15T06:24:45;10.03;;;2.60;;
26014;SDS011;13793;55.388;37.844;2022-11-15T06:27:33;5.57;;;1.80;;
26014;SDS011;13793;55.388;37.844;2022-11-15T06:30:25;5.80;;;1.83;;
26014;SDS011;13793;55.388;37.844;2022-11-15T06:33:13;3.73;;;1.87;;
26014;SDS011;13793;55.388;37.844;2022-11-15T06:36:02;3.80;;;1.60;;
26014;SDS011;13793;55.388;37.844;2022-11-15T06:38:52;5.57;;;1.80;;
26014;SDS011;13793;55.388;37.844;2022-11-15T06:41:41;4.63;;;1.40;;
26014;SDS011;13793;55.388;37.844;2022-11-15T06:44:30;4.37;;;1.70;;
26014;SDS011;13793;55.388;37.844;2022-11-15T06:47:19;7.90;;;2.93;;
26014;SDS011;13793;55.388;37.844;2022-11-15T06:50:08;6.27;;;1.73;;
26014;SDS011;13793;55.388;37.844;2022-11-15T06:53:00;4.37;;;1.37;;
26014;SDS011;13793;55.388;37.844;2022-11-15T06:55:50;4.07;;;1.50;;
26014;SDS011;13793;55.388;37.844;2022-11-15T06:58:39;2.50;;;1.40;;
26014;SDS011;13793;55.388;37.844;2022-11-15T07:01:27;3.43;;;1.50;;
26014;SDS011;13793;55.388;37.844;2022-11-15T07:04:16;4.40;;;1.40;;
26014;SDS011;13793;55.388;37.844;2022-11-15T07:07:05;3.80;;;1.50;;
26014;SDS011;13793;55.388;37.844;2022-11-15T07:09:54;2.53;;;1.30;;
26014;SDS011;13793;55.388;37.844;2022-11-15T07:12:45;5.70;;;1.97;;
26014;SDS011;13793;55.388;37.844;2022-11-15T07:15:35;5.60;;;1.70;;
26014;SDS011;13793;55.388;37.844;2022-11-15T07:18:23;3.47;;;1.50;;
26014;SDS011;13793;55.388;37.844;2022-11-15T07:21:14;6.47;;;1.70;;
26014;SDS011;13793;55.388;37.844;2022-11-15T07:24:03;8.47;;;2.37;;
26014;SDS011;13793;55.388;37.844;2022-11-15T07:26:52;7.57;;;2.40;;
26014;SDS011;13793;55.388;37.844;2022-11-15T07:29:40;7.50;;;1.67;;
26014;SDS011;13793;55.388;37.844;2022-11-15T07:32:30;6.33;;;1.80;;
26014;SDS011;13793;55.388;37.844;2022-11-15T07:35:18;4.23;;;1.50;;
26014;SDS011;13793;55.388;37.844;2022-11-15T07:38:07;5.60;;;2.00;;
26014;SDS011;13793;55.388;37.844;2022-11-15T07:40:59;8.43;;;3.03;;
26014;SDS011;13793;55.388;37.844;2022-11-15T07:43:52;7.80;;;2.83;;
26014;SDS011;13793;55.388;37.844;2022-11-15T07:46:41;9.13;;;4.37;;
26014;SDS011;13793;55.388;37.844;2022-11-15T07:49:29;5.37;;;2.03;;
26014;SDS011;13793;55.388;37.844;2022-11-15T07:52:17;5.57;;;1.60;;
26014;SDS011;13793;55.388;37.844;2022-11-15T07:55:07;6.00;;;1.97;;
26014;SDS011;13793;55.388;37.844;2022-11-15T07:58:02;6.13;;;2.10;;
26014;SDS011;13793;55.388;37.844;2022-11-15T08:00:52;7.00;;;1.70;;
26014;SDS011;13793;55.388;37.844;2022-11-15T08:03:40;4.40;;;1.67;;
26014;SDS011;13793;55.388;37.844;2022-11-15T08:06:31;5.83;;;1.80;;
26014;SDS011;13793;55.388;37.844;2022-11-15T08:09:20;5.43;;;2.53;;
26014;SDS011;13793;55.388;37.844;2022-11-15T08:12:09;10.03;;;2.20;;
26014;SDS011;13793;55.388;37.844;2022-11-15T08:14:57;5.17;;;1.77;;
26014;SDS011;13793;55.388;37.844;2022-11-15T08:17:46;6.93;;;2.57;;
26014;SDS011;13793;55.388;37.844;2022-11-15T08:20:35;4.73;;;1.97;;
26014;SDS011;13793;55.388;37.844;2022-11-15T08:23:23;5.90;;;1.83;;
26014;SDS011;13793;55.388;37.844;2022-11-15T08:26:12;7.47;;;2.13;;
26014;SDS011;13793;55.388;37.844;2022-11-15T08:29:01;3.00;;;1.63;;
26014;SDS011;13793;55.388;37.844;2022-11-15T08:31:49;6.33;;;1.97;;
26014;SDS011;13793;55.388;37.844;2022-11-15T08:34:38;6.10;;;2.20;;
26014;SDS011;13793;55.388;37.844;2022-11-15T08:37:27;7.30;;;1.90;;
26014;SDS011;13793;55.388;37.844;2022-11-15T08:40:16;6.73;;;1.93;;
26014;SDS011;13793;55.388;37.844;2022-11-15T08:43:06;3.67;;;2.00;;
26014;SDS011;13793;55.388;37.844;2022-11-15T08:45:58;3.23;;;1.60;;
26014;SDS011;13793;55.388;37.844;2022-11-15T08:48:47;5.43;;;2.10;;
26014;SDS011;13793;55.388;37.844;2022-11-15T08:51:36;6.30;;;1.87;;
26014;SDS011;13793;55.388;37.844;2022-11-15T08:54:25;4.53;;;1.40;;
26014;SDS011;13793;55.388;37.844;2022-11-15T08:57:14;6.67;;;2.07;;
26014;SDS011;13793;55.388;37.844;2022-11-15T09:00:03;6.90;;;1.77;;
26014;SDS011;13793;55.388;37.844;2022-11-15T09:02:52;5.80;;;1.77;;
26014;SDS011;13793;55.388;37.844;2022-11-15T09:05:41;4.17;;;1.80;;
26014;SDS011;13793;55.388;37.844;2022-11-15T09:08:30;7.60;;;2.77;;
26014;SDS011;13793;55.388;37.844;2022-11-15T09:11:19;6.17;;;2.27;;
26014;SDS011;13793;55.388;37.844;2022-11-15T09:14:10;4.10;;;1.87;;
26014;SDS011;13793;55.388;37.844;2022-11-15T09:16:59;5.97;;;1.80;;
26014;SDS011;13793;55.388;37.844;2022-11-15T09:19:48;4.27;;;1.80;;
26014;SDS011;13793;55.388;37.844;2022-11-15T09:22:37;7.00;;;2.10;;
26014;SDS011;13793;55.388;37.844;2022-11-15T09:25:26;6.77;;;2.00;;
26014;SDS011;13793;55.388;37.844;2022-11-15T09:28:15;4.10;;;2.10;;
26014;SDS011;13793;55.388;37.844;2022-11-15T09:31:04;6.37;;;1.83;;
26014;SDS011;13793;55.388;37.844;2022-11-15T09:33:53;4.13;;;2.00;;
26014;SDS011;13793;55.388;37.844;2022-11-15T09:36:42;7.83;;;2.13;;
26014;SDS011;13793;55.388;37.844;2022-11-15T09:39:30;6.87;;;2.10;;
26014;SDS011;13793;55.388;37.844;2022-11-15T09:42:25;5.07;;;2.07;;
26014;SDS011;13793;55.388;37.844;2022-11-15T09:45:34;5.87;;;2.43;;
26014;SDS011;13793;55.388;37.844;2022-11-15T09:48:38;9.57;;;2.90;;
26014;SDS011;13793;55.388;37.844;2022-11-15T09:51:14;9.77;;;2.90;;
26014;SDS011;13793;55.388;37.844;2022-11-15T09:56:41;3.70;;;1.90;;
26014;SDS011;13793;55.388;37.844;2022-11-15T10:04:48;7.77;;;2.53;;
26014;SDS011;13793;55.388;37.844;2022-11-15T10:07:21;8.00;;;2.37;;
26014;SDS011;13793;55.388;37.844;2022-11-15T10:10:00;7.13;;;1.93;;
26014;SDS011;13793;55.388;37.844;2022-11-15T10:12:40;6.20;;;1.90;;
26014;SDS011;13793;55.388;37.844;2022-11-15T10:15:14;5.20;;;1.70;;
26014;SDS011;13793;55.388;37.844;2022-11-15T10:20:27;7.10;;;1.70;;
26014;SDS011;13793;55.388;37.844;2022-11-15T10:22:59;6.03;;;1.87;;
26014;SDS011;13793;55.388;37.844;2022-11-15T10:25:33;5.50;;;1.70;;
26014;SDS011;13793;55.388;37.844;2022-11-15T10:28:20;5.60;;;1.60;;
26014;SDS011;13793;55.388;37.844;2022-11-15T10:31:00;6.97;;;2.03;;
26014;SDS011;13793;55.388;37.844;2022-11-15T10:33:34;5.37;;;2.10;;
26014;SDS011;13793;55.388;37.844;2022-11-15T10:49:29;3.83;;;1.90;;
26014;SDS011;13793;55.388;37.844;2022-11-15T10:52:17;7.43;;;2.50;;
26014;SDS011;13793;55.388;37.844;2022-11-15T10:55:02;13.07;;;4.80;;
26014;SDS011;13793;55.388;37.844;2022-11-15T10:57:35;15.43;;;7.00;;
26014;SDS011;13793;55.388;37.844;2022-11-15T11:00:07;10.63;;;5.23;;
26014;SDS011;13793;55.388;37.844;2022-11-15T11:05:29;7.37;;;2.80;;
26014;SDS011;13793;55.388;37.844;2022-11-15T11:08:24;12.07;;;2.60;;
26014;SDS011;13793;55.388;37.844;2022-11-15T11:10:34;5.83;;;2.37;;
26014;SDS011;13793;55.388;37.844;2022-11-15T11:13:15;6.17;;;2.63;;
26014;SDS011;13793;55.388;37.844;2022-11-15T11:18:49;8.30;;;2.80;;
26014;SDS011;13793;55.388;37.844;2022-11-15T11:21:32;5.27;;;2.37;;
26014;SDS011;13793;55.388;37.844;2022-11-15T11:24:21;7.63;;;2.57;;
26014;SDS011;13793;55.388;37.844;2022-11-15T11:38:08;5.10;;;2.17;;
26014;SDS011;13793;55.388;37.844;2022-11-15T11:44:15;6.33;;;2.40;;
26014;SDS011;13793;55.388;37.844;2022-11-15T11:49:06;6.37;;;2.03;;
26014;SDS011;13793;55.388;37.844;2022-11-15T11:51:49;8.00;;;2.57;;
26014;SDS011;13793;55.388;37.844;2022-11-15T11:57:25;5.33;;;2.27;;
26014;SDS011;13793;55.388;37.844;2022-11-15T12:00:22;9.87;;;3.07;;
26014;SDS011;13793;55.388;37.844;2022-11-15T12:03:09;8.37;;;4.93;;
26014;SDS011;13793;55.388;37.844;2022-11-15T12:05:53;18.00;;;6.40;;
26014;SDS011;13793;55.388;37.844;2022-11-15T12:08:29;11.47;;;5.10;;
26014;SDS011;13793;55.388;37.844;2022-11-15T12:13:45;9.87;;;4.93;;
26014;SDS011;13793;55.388;37.844;2022-11-15T12:16:20;15.90;;;7.20;;
26014;SDS011;13793;55.388;37.844;2022-11-15T12:18:53;12.43;;;4.30;;
26014;SDS011;13793;55.388;37.844;2022-11-15T12:21:30;15.93;;;6.43;;
26014;SDS011;13793;55.388;37.844;2022-11-15T12:23:59;9.10;;;4.23;;
26014;SDS011;13793;55.388;37.844;2022-11-15T12:26:41;14.00;;;5.37;;
26014;SDS011;13793;55.388;37.844;2022-11-15T12:29:11;14.83;;;7.42;;
26014;SDS011;13793;55.388;37.844;2022-11-15T12:31:49;10.63;;;4.30;;
26014;SDS011;13793;55.388;37.844;2022-11-15T12:36:54;17.93;;;7.53;;
26014;SDS011;13793;55.388;37.844;2022-11-15T12:42:56;8.40;;;4.15;;
26014;SDS011;13793;55.388;37.844;2022-11-15T12:45:27;12.17;;;4.30;;
26014;SDS011;13793;55.388;37.844;2022-11-15T12:53:30;13.00;;;4.60;;
26014;SDS011;13793;55.388;37.844;2022-11-15T12:58:57;18.03;;;5.70;;
26014;SDS011;13793;55.388;37.844;2022-11-15T13:06:55;14.47;;;5.30;;
26014;SDS011;13793;55.388;37.844;2022-11-15T13:12:10;11.07;;;4.77;;
26014;SDS011;13793;55.388;37.844;2022-11-15T13:14:58;12.97;;;4.53;;
26014;SDS011;13793;55.388;37.844;2022-11-15T13:22:43;12.23;;;3.80;;
26014;SDS011;13793;55.388;37.844;2022-11-15T13:30:54;10.93;;;4.70;;
26014;SDS011;13793;55.388;37.844;2022-11-15T13:33:28;10.63;;;4.20;;
26014;SDS011;13793;55.388;37.844;2022-11-15T13:36:01;12.53;;;4.73;;
26014;SDS011;13793;55.388;37.844;2022-11-15T13:38:36;9.73;;;4.20;;
26014;SDS011;13793;55.388;37.844;2022-11-15T13:43:50;12.03;;;4.50;;
26014;SDS011;13793;55.388;37.844;2022-11-15T13:46:22;13.03;;;4.73;;
26014;SDS011;13793;55.388;37.844;2022-11-15T13:49:02;9.13;;;5.27;;
26014;SDS011;13793;55.388;37.844;2022-11-15T13:51:35;14.20;;;4.40;;
26014;SDS011;13793;55.388;37.844;2022-11-15T13:56:53;8.10;;;4.10;;
26014;SDS011;13793;55.388;37.844;2022-11-15T13:59:34;12.37;;;4.47;;
26014;SDS011;13793;55.388;37.844;2022-11-15T14:02:03;9.43;;;4.60;;
26014;SDS011;13793;55.388;37.844;2022-11-15T14:04:34;11.30;;;4.70;;
26014;SDS011;13793;55.388;37.844;2022-11-15T14:07:05;10.27;;;4.03;;
26014;SDS011;13793;55.388;37.844;2022-11-15T14:09:39;12.30;;;4.67;;
26014;SDS011;13793;55.388;37.844;2022-11-15T14:12:25;12.10;;;5.47;;
26014;SDS011;13793;55.388;37.844;2022-11-15T14:15:18;12.13;;;4.90;;
26014;SDS011;13793;55.388;37.844;2022-11-15T14:17:52;11.13;;;5.97;;
26014;SDS011;13793;55.388;37.844;2022-11-15T14:20:32;12.97;;;6.20;;
26014;SDS011;13793;55.388;37.844;2022-11-15T14:23:28;10.47;;;5.77;;
26014;SDS011;13793;55.388;37.844;2022-11-15T14:25:53;18.90;;;6.60;;
26014;SDS011;13793;55.388;37.844;2022-11-15T14:31:01;14.73;;;6.40;;
26014;SDS011;13793;55.388;37.844;2022-11-15T14:33:34;14.03;;;5.87;;
26014;SDS011;13793;55.388;37.844;2022-11-15T14:36:19;15.90;;;6.20;;
26014;SDS011;13793;55.388;37.844;2022-11-15T14:38:49;11.27;;;5.77;;
26014;SDS011;13793;55.388;37.844;2022-11-15T14:41:21;12.37;;;5.70;;
26014;SDS011;13793;55.388;37.844;2022-11-15T14:43:53;16.00;;;7.33;;
26014;SDS011;13793;55.388;37.844;2022-11-15T14:46:24;12.27;;;6.00;;
26014;SDS011;13793;55.388;37.844;2022-11-15T14:48:54;15.90;;;7.23;;
26014;SDS011;13793;55.388;37.844;2022-11-15T14:51:25;15.40;;;6.90;;
26014;SDS011;13793;55.388;37.844;2022-11-15T14:53:56;13.10;;;6.13;;
26014;SDS011;13793;55.388;37.844;2022-11-15T14:56:26;14.40;;;5.77;;
26014;SDS011;13793;55.388;37.844;2022-11-15T14:58:57;14.30;;;5.77;;
26014;SDS011;13793;55.388;37.844;2022-11-15T15:01:28;11.60;;;5.73;;
26014;SDS011;13793;55.388;37.844;2022-11-15T15:03:59;10.37;;;5.43;;
26014;SDS011;13793;55.388;37.844;2022-11-15T15:06:29;13.23;;;5.27;;
26014;SDS011;13793;55.388;37.844;2022-11-15T15:09:00;12.07;;;4.83;;
26014;SDS011;13793;55.388;37.844;2022-11-15T15:11:31;11.03;;;5.47;;
26014;SDS011;13793;55.388;37.844;2022-11-15T15:14:01;8.80;;;4.90;;
26014;SDS011;13793;55.388;37.844;2022-11-15T15:16:32;11.40;;;5.07;;
26014;SDS011;13793;55.388;37.844;2022-11-15T15:19:03;9.90;;;5.27;;
26014;SDS011;13793;55.388;37.844;2022-11-15T15:21:34;12.80;;;4.23;;
26014;SDS011;13793;55.388;37.844;2022-11-15T15:24:05;12.20;;;4.80;;
26014;SDS011;13793;55.388;37.844;2022-11-15T15:26:37;14.30;;;4.43;;
26014;SDS011;13793;55.388;37.844;2022-11-15T15:29:08;9.60;;;4.10;;
26014;SDS011;13793;55.388;37.844;2022-11-15T15:31:39;10.33;;;4.13;;
26014;SDS011;13793;55.388;37.844;2022-11-15T15:34:10;11.53;;;3.97;;
26014;SDS011;13793;55.388;37.844;2022-11-15T15:36:41;9.03;;;3.97;;
26014;SDS011;13793;55.388;37.844;2022-11-15T15:39:11;8.43;;;4.03;;
26014;SDS011;13793;55.388;37.844;2022-11-15T15:41:42;12.13;;;3.83;;
26014;SDS011;13793;55.388;37.844;2022-11-15T15:44:12;9.13;;;4.70;;
26014;SDS011;13793;55.388;37.844;2022-11-15T15:46:43;13.10;;;5.60;;
26014;SDS011;13793;55.388;37.844;2022-11-15T15:49:14;10.20;;;4.23;;
26014;SDS011;13793;55.388;37.844;2022-11-15T15:51:45;11.40;;;4.13;;
26014;SDS011;13793;55.388;37.844;2022-11-15T15:54:16;9.57;;;3.80;;
26014;SDS011;13793;55.388;37.844;2022-11-15T15:56:47;8.00;;;3.77;;
26014;SDS011;13793;55.388;37.844;2022-11-15T15:59:17;14.07;;;4.03;;
26014;SDS011;13793;55.388;37.844;2022-11-15T16:01:48;7.37;;;3.73;;
26014;SDS011;13793;55.388;37.844;2022-11-15T16:04:19;9.50;;;3.97;;
26014;SDS011;13793;55.388;37.844;2022-11-15T16:06:50;6.07;;;3.20;;
26014;SDS011;13793;55.388;37.844;2022-11-15T16:09:22;9.20;;;3.40;;
26014;SDS011;13793;55.388;37.844;2022-11-15T16:11:55;9.60;;;3.80;;
26014;SDS011;13793;55.388;37.844;2022-11-15T16:14:25;8.47;;;3.93;;
26014;SDS011;13793;55.388;37.844;2022-11-15T16:16:56;10.27;;;4.27;;
26014;SDS011;13793;55.388;37.844;2022-11-15T16:19:27;10.87;;;4.60;;
26014;SDS011;13793;55.388;37.844;2022-11-15T16:21:58;11.07;;;4.93;;
26014;SDS011;13793;55.388;37.844;2022-11-15T16:24:29;9.53;;;4.57;;
26014;SDS011;13793;55.388;37.844;2022-11-15T16:26:59;8.77;;;4.60;;
26014;SDS011;13793;55.388;37.844;2022-11-15T16:29:31;12.57;;;5.93;;
26014;SDS011;13793;55.388;37.844;2022-11-15T16:32:02;12.40;;;5.77;;
26014;SDS011;13793;55.388;37.844;2022-11-15T16:34:32;9.23;;;4.63;;
26014;SDS011;13793;55.388;37.844;2022-11-15T16:37:04;17.37;;;6.87;;
26014;SDS011;13793;55.388;37.844;2022-11-15T16:39:35;13.00;;;5.73;;
26014;SDS011;13793;55.388;37.844;2022-11-15T16:42:05;10.50;;;6.03;;
26014;SDS011;13793;55.388;37.844;2022-11-15T16:44:36;14.87;;;6.50;;
26014;SDS011;13793;55.388;37.844;2022-11-15T16:47:17;19.57;;;7.50;;
26014;SDS011;13793;55.388;37.844;2022-11-15T16:49:48;13.23;;;6.93;;
26014;SDS011;13793;55.388;37.844;2022-11-15T16:52:19;13.70;;;6.07;;
26014;SDS011;13793;55.388;37.844;2022-11-15T16:54:50;15.53;;;6.80;;
26014;SDS011;13793;55.388;37.844;2022-11-15T16:57:21;13.97;;;6.27;;
26014;SDS011;13793;55.388;37.844;2022-11-15T16:59:52;17.17;;;7.83;;
26014;SDS011;13793;55.388;37.844;2022-11-15T17:02:22;18.93;;;7.47;;
26014;SDS011;13793;55.388;37.844;2022-11-15T17:04:56;14.10;;;6.83;;
26014;SDS011;13793;55.388;37.844;2022-11-15T17:07:26;15.07;;;6.20;;
26014;SDS011;13793;55.388;37.844;2022-11-15T17:09:57;17.60;;;7.43;;
26014;SDS011;13793;55.388;37.844;2022-11-15T17:12:29;16.33;;;7.03;;
26014;SDS011;13793;55.388;37.844;2022-11-15T17:15:00;15.23;;;6.57;;
26014;SDS011;13793;55.388;37.844;2022-11-15T17:17:32;13.70;;;6.27;;
26014;SDS011;13793;55.388;37.844;2022-11-15T17:20:03;18.77;;;7.10;;
26014;SDS011;13793;55.388;37.844;2022-11-15T17:22:36;12.90;;;5.77;;
26014;SDS011;13793;55.388;37.844;2022-11-15T17:25:07;15.37;;;6.67;;
26014;SDS011;13793;55.388;37.844;2022-11-15T17:27:38;14.07;;;5.43;;
26014;SDS011;13793;55.388;37.844;2022-11-15T17:30:09;16.33;;;6.77;;
26014;SDS011;13793;55.388;37.844;2022-11-15T17:32:42;11.47;;;5.77;;
26014;SDS011;13793;55.388;37.844;2022-11-15T17:35:14;13.30;;;6.10;;
26014;SDS011;13793;55.388;37.844;2022-11-15T17:37:45;12.23;;;5.97;;
26014;SDS011;13793;55.388;37.844;2022-11-15T17:40:16;13.27;;;5.43;;
26014;SDS011;13793;55.388;37.844;2022-11-15T17:42:47;12.50;;;5.70;;
26014;SDS011;13793;55.388;37.844;2022-11-15T17:45:17;11.97;;;6.00;;
26014;SDS011;13793;55.388;37.844;2022-11-15T17:47:48;13.63;;;5.87;;
26014;SDS011;13793;55.388;37.844;2022-11-15T17:50:19;13.63;;;6.10;;
26014;SDS011;13793;55.388;37.844;2022-11-15T17:52:50;17.93;;;8.90;;
26014;SDS011;13793;55.388;37.844;2022-11-15T17:55:20;16.43;;;6.67;;
26014;SDS011;13793;55.388;37.844;2022-11-15T17:57:51;18.90;;;7.80;;
26014;SDS011;13793;55.388;37.844;2022-11-15T18:00:22;17.83;;;7.23;;
26014;SDS011;13793;55.388;37.844;2022-11-15T18:02:53;15.37;;;8.27;;
26014;SDS011;13793;55.388;37.844;2022-11-15T18:05:25;11.97;;;6.57;;
26014;SDS011;13793;55.388;37.844;2022-11-15T18:07:59;12.27;;;5.80;;
26014;SDS011;13793;55.388;37.844;2022-11-15T18:10:29;13.20;;;8.00;;